createdAt,value
2019-03-19T00:00:37.135Z,14.90
2019-03-19T00:03:06.678Z,14.80
2019-03-19T00:05:36.209Z,14.98
2019-03-19T00:08:05.753Z,15.31
2019-03-19T00:10:35.277Z,15.38
2019-03-19T00:13:04.823Z,15.54
2019-03-19T00:15:34.355Z,15.56
2019-03-19T00:18:03.971Z,15.71
2019-03-19T00:20:33.497Z,15.68
2019-03-19T00:23:03.030Z,15.62
2019-03-19T00:25:32.561Z,15.44
2019-03-19T00:28:02.138Z,15.36
2019-03-19T00:30:31.655Z,15.28
2019-03-19T00:33:01.183Z,15.29
2019-03-19T00:35:30.726Z,15.30
2019-03-19T00:38:00.253Z,15.24
2019-03-19T00:40:29.786Z,15.11
2019-03-19T00:42:59.341Z,15.02
2019-03-19T00:45:28.881Z,15.05
2019-03-19T00:47:58.407Z,15.28
2019-03-19T00:50:27.946Z,15.44
2019-03-19T00:52:57.460Z,15.41
2019-03-19T00:55:27.004Z,15.36
2019-03-19T00:57:56.629Z,15.32
2019-03-19T01:00:26.205Z,15.31
2019-03-19T01:02:55.728Z,15.20
2019-03-19T01:05:25.270Z,15.07
2019-03-19T01:07:54.925Z,14.94
2019-03-19T01:10:24.450Z,14.86
2019-03-19T01:12:53.972Z,14.69
2019-03-19T01:15:23.541Z,14.56
2019-03-19T01:17:53.062Z,14.40
2019-03-19T01:20:22.603Z,14.32
2019-03-19T01:22:52.136Z,14.25
2019-03-19T01:25:21.677Z,14.08
2019-03-19T01:27:51.205Z,14.02
2019-03-19T01:30:20.759Z,14.02
2019-03-19T01:32:50.309Z,14.02
2019-03-19T01:35:19.860Z,13.96
2019-03-19T01:37:49.399Z,14.08
2019-03-19T01:40:19.079Z,14.12
2019-03-19T01:42:48.598Z,14.09
2019-03-19T01:45:18.132Z,14.15
2019-03-19T01:47:47.655Z,14.25
2019-03-19T01:50:17.213Z,14.28
2019-03-19T01:52:46.751Z,14.29
2019-03-19T01:55:16.300Z,14.35
2019-03-19T01:57:45.839Z,14.36
2019-03-19T02:00:15.482Z,14.34
2019-03-19T02:02:45.021Z,14.41
2019-03-19T02:05:14.707Z,14.36
2019-03-19T02:07:44.236Z,14.27
2019-03-19T02:10:13.786Z,14.30
2019-03-19T02:12:43.323Z,14.26
2019-03-19T02:15:13.228Z,14.26
2019-03-19T02:17:42.745Z,14.30
2019-03-19T02:20:12.789Z,14.23
2019-03-19T02:22:42.374Z,14.23
2019-03-19T02:25:11.994Z,14.22
2019-03-19T02:27:41.522Z,14.11
2019-03-19T02:30:11.621Z,14.03
2019-03-19T02:32:41.161Z,14.14
2019-03-19T02:35:10.808Z,14.06
2019-03-19T02:37:40.311Z,14.14
2019-03-19T02:40:10.045Z,14.25
2019-03-19T02:42:39.581Z,14.12
2019-03-19T02:45:09.418Z,14.07
2019-03-19T02:47:38.949Z,14.12
2019-03-19T02:50:09.236Z,13.95
2019-03-19T02:52:38.789Z,14.00
2019-03-19T02:55:08.891Z,14.00
2019-03-19T02:57:38.432Z,13.91
2019-03-19T03:00:08.491Z,13.76
2019-03-19T03:02:38.023Z,13.71
2019-03-19T03:05:08.234Z,13.64
2019-03-19T03:07:37.770Z,13.46
2019-03-19T03:10:08.075Z,13.33
2019-03-19T03:12:37.645Z,13.21
2019-03-19T03:15:07.601Z,13.05
2019-03-19T03:17:37.206Z,12.94
2019-03-19T03:20:06.984Z,12.78
2019-03-19T03:22:36.535Z,12.65
2019-03-19T03:25:06.622Z,12.57
2019-03-19T03:27:36.166Z,12.49
2019-03-19T03:30:06.191Z,12.41
2019-03-19T03:32:35.730Z,12.41
2019-03-19T03:35:05.642Z,12.32
2019-03-19T03:37:35.179Z,12.39
2019-03-19T03:40:05.052Z,12.26
2019-03-19T03:42:34.591Z,12.20
2019-03-19T03:45:04.200Z,12.13
2019-03-19T03:47:33.738Z,12.11
2019-03-19T03:50:03.319Z,12.10
2019-03-19T03:52:32.837Z,12.23
2019-03-19T03:55:02.423Z,12.49
2019-03-19T03:57:31.997Z,12.53
2019-03-19T04:00:01.582Z,12.58
2019-03-19T04:02:31.093Z,12.48
2019-03-19T04:05:00.641Z,12.49
2019-03-19T04:07:30.177Z,12.55
2019-03-19T04:09:59.725Z,12.54
2019-03-19T04:12:29.251Z,12.73
2019-03-19T04:14:58.833Z,12.75
2019-03-19T04:17:28.386Z,12.68
2019-03-19T04:19:57.944Z,12.58
2019-03-19T04:22:27.471Z,12.60
2019-03-19T04:24:57.050Z,12.65
2019-03-19T04:27:26.586Z,12.63
2019-03-19T04:29:56.164Z,12.70
2019-03-19T04:32:25.640Z,12.65
2019-03-19T04:34:55.191Z,12.65
2019-03-19T04:37:24.716Z,12.61
2019-03-19T04:39:54.256Z,12.53
2019-03-19T04:42:23.784Z,12.56
2019-03-19T04:44:53.333Z,12.64
2019-03-19T04:47:22.868Z,12.82
2019-03-19T04:49:52.401Z,12.90
2019-03-19T04:52:21.987Z,12.95
2019-03-19T04:54:51.544Z,13.00
2019-03-19T04:57:26.830Z,13.03
2019-03-19T04:59:52.343Z,13.09
2019-03-19T05:02:21.858Z,13.27
2019-03-19T05:04:51.395Z,14.01
2019-03-19T05:07:21.311Z,14.79
2019-03-19T05:09:50.842Z,15.24
2019-03-19T05:12:20.364Z,15.70
2019-03-19T05:14:49.897Z,15.99
2019-03-19T05:17:19.412Z,16.43
2019-03-19T05:19:48.960Z,16.14
2019-03-19T05:22:18.495Z,16.47
2019-03-19T05:24:48.187Z,16.78
2019-03-19T05:27:17.794Z,17.06
2019-03-19T05:29:47.344Z,17.21
2019-03-19T05:32:16.872Z,17.64
2019-03-19T05:34:46.413Z,17.78
2019-03-19T05:37:15.936Z,18.07
2019-03-19T05:39:45.488Z,18.39
2019-03-19T05:42:15.038Z,18.80
2019-03-19T05:44:44.586Z,19.02
2019-03-19T05:47:14.108Z,19.38
2019-03-19T05:49:43.658Z,19.40
2019-03-19T05:52:13.186Z,20.22
2019-03-19T05:54:42.727Z,20.45
2019-03-19T05:57:12.294Z,19.79
2019-03-19T05:59:41.902Z,19.87
2019-03-19T06:02:11.456Z,20.21
2019-03-19T06:04:40.994Z,20.93
2019-03-19T06:07:10.526Z,20.88
2019-03-19T06:09:40.064Z,20.92
2019-03-19T06:12:09.618Z,20.68
2019-03-19T06:14:39.148Z,21.65
2019-03-19T06:17:08.712Z,21.25
2019-03-19T06:19:38.253Z,20.96
2019-03-19T06:22:07.844Z,21.75
2019-03-19T06:24:37.359Z,20.68
2019-03-19T06:27:06.881Z,20.45
2019-03-19T06:29:36.424Z,20.72
2019-03-19T06:32:06.014Z,20.54
2019-03-19T06:34:35.534Z,20.82
2019-03-19T06:37:05.093Z,19.98
2019-03-19T06:39:34.614Z,20.17
2019-03-19T06:42:04.150Z,19.08
2019-03-19T06:44:33.680Z,18.84
2019-03-19T06:47:03.233Z,19.00
2019-03-19T06:49:32.758Z,18.70
2019-03-19T06:52:02.284Z,18.65
2019-03-19T06:54:31.815Z,18.79
2019-03-19T06:57:01.372Z,19.14
2019-03-19T06:59:30.888Z,19.58
2019-03-19T07:02:00.421Z,19.02
2019-03-19T07:04:29.950Z,18.21
2019-03-19T07:06:59.496Z,18.09
2019-03-19T07:09:29.028Z,17.74
2019-03-19T07:11:58.562Z,18.09
2019-03-19T07:14:28.087Z,18.52
2019-03-19T07:16:57.620Z,18.86
2019-03-19T07:19:27.191Z,18.46
2019-03-19T07:21:56.721Z,18.47
2019-03-19T07:24:26.270Z,18.46
2019-03-19T07:26:55.818Z,18.74
2019-03-19T07:29:25.340Z,18.74
2019-03-19T07:31:54.868Z,18.35
2019-03-19T07:34:24.403Z,18.24
2019-03-19T07:36:53.987Z,18.26
2019-03-19T07:39:23.513Z,18.07
2019-03-19T07:41:53.049Z,17.90
2019-03-19T07:44:22.590Z,17.67
2019-03-19T07:46:52.141Z,17.77
2019-03-19T07:49:21.666Z,17.70
2019-03-19T07:51:53.375Z,17.64
2019-03-19T07:54:22.554Z,17.91
2019-03-19T07:56:52.165Z,17.73
2019-03-19T07:59:21.707Z,17.96
2019-03-19T08:01:51.261Z,17.97
2019-03-19T08:04:20.786Z,18.00
2019-03-19T08:06:50.330Z,17.77
2019-03-19T08:09:19.921Z,17.89
2019-03-19T08:11:49.451Z,18.03
2019-03-19T08:14:18.970Z,18.27
2019-03-19T08:16:48.586Z,18.41
2019-03-19T08:19:18.129Z,18.67
2019-03-19T08:21:47.676Z,18.45
2019-03-19T08:24:17.304Z,18.45
2019-03-19T08:26:49.121Z,18.14
2019-03-19T08:29:19.009Z,17.83
2019-03-19T08:31:48.817Z,17.77
2019-03-19T08:34:18.344Z,17.81
2019-03-19T08:36:47.901Z,18.26
2019-03-19T08:39:17.581Z,18.62
2019-03-19T08:41:47.223Z,18.84
2019-03-19T08:44:16.750Z,18.68
2019-03-19T08:46:46.289Z,18.84
2019-03-19T08:49:15.821Z,19.39
2019-03-19T08:51:45.546Z,19.34
2019-03-19T08:54:15.222Z,19.26
2019-03-19T08:56:44.770Z,19.56
2019-03-19T08:59:14.356Z,19.39
2019-03-19T09:01:43.916Z,19.47
2019-03-19T09:04:13.442Z,19.22
2019-03-19T09:06:43.001Z,18.84
2019-03-19T09:09:12.539Z,19.00
2019-03-19T09:11:42.126Z,19.22
2019-03-19T09:14:11.660Z,19.99
2019-03-19T09:16:41.192Z,20.20
2019-03-19T09:19:10.801Z,19.89
2019-03-19T09:21:40.350Z,19.73
2019-03-19T09:24:09.893Z,19.86
2019-03-19T09:26:39.448Z,19.81
2019-03-19T09:29:16.947Z,20.02
2019-03-19T09:31:40.256Z,20.22
2019-03-19T09:34:09.797Z,20.05
2019-03-19T09:36:39.348Z,20.27
2019-03-19T09:39:09.533Z,20.82
2019-03-19T09:41:39.063Z,20.82
2019-03-19T09:44:08.624Z,21.00
2019-03-19T09:46:38.173Z,21.27
2019-03-19T09:49:07.747Z,21.44
2019-03-19T09:51:37.273Z,21.25
2019-03-19T09:54:06.840Z,21.61
2019-03-19T09:56:36.407Z,21.86
2019-03-19T09:59:05.955Z,21.37
2019-03-19T10:01:35.495Z,21.73
2019-03-19T10:04:05.058Z,21.99
2019-03-19T10:06:34.608Z,21.96
2019-03-19T10:09:04.917Z,22.22
2019-03-19T10:11:34.473Z,22.31
2019-03-19T10:14:04.109Z,22.48
2019-03-19T10:16:33.928Z,22.27
2019-03-19T10:19:03.465Z,22.68
2019-03-19T10:21:33.018Z,22.30
2019-03-19T10:24:02.618Z,22.22
2019-03-19T10:26:32.344Z,22.16
2019-03-19T10:29:01.896Z,22.49
2019-03-19T10:31:31.426Z,22.61
2019-03-19T10:34:00.973Z,22.99
2019-03-19T10:36:30.508Z,23.76
2019-03-19T10:39:00.082Z,22.99
2019-03-19T10:41:29.613Z,23.34
2019-03-19T10:43:59.151Z,22.81
2019-03-19T10:46:28.680Z,22.75
2019-03-19T10:48:58.348Z,22.16
2019-03-19T10:51:27.918Z,22.33
2019-03-19T10:53:57.559Z,23.15
2019-03-19T10:56:27.084Z,23.55
2019-03-19T10:58:56.662Z,24.14
2019-03-19T11:01:26.200Z,23.87
2019-03-19T11:03:55.763Z,23.31
2019-03-19T11:06:25.318Z,23.01
2019-03-19T11:08:55.004Z,22.17
2019-03-19T11:11:24.608Z,22.18
2019-03-19T11:13:54.144Z,22.63
2019-03-19T11:16:23.661Z,23.79
2019-03-19T11:18:53.327Z,25.41
2019-03-19T11:21:22.993Z,26.24
2019-03-19T11:23:52.559Z,25.60
2019-03-19T11:26:22.218Z,25.93
2019-03-19T11:28:51.775Z,25.68
2019-03-19T11:31:21.539Z,26.16
2019-03-19T11:33:51.056Z,26.20
2019-03-19T11:36:20.573Z,26.37
2019-03-19T11:38:50.145Z,27.18
2019-03-19T11:41:19.704Z,27.56
2019-03-19T11:43:49.288Z,27.78
2019-03-19T11:46:18.972Z,26.91
2019-03-19T11:48:48.589Z,26.66
2019-03-19T11:51:18.134Z,26.74
2019-03-19T11:53:47.686Z,26.74
2019-03-19T11:56:17.305Z,26.94
2019-03-19T11:58:49.654Z,27.07
2019-03-19T12:01:19.237Z,27.00
2019-03-19T12:03:48.791Z,26.65
2019-03-19T12:06:18.320Z,26.67
2019-03-19T12:08:48.045Z,26.53
2019-03-19T12:11:17.737Z,26.45
2019-03-19T12:13:47.353Z,26.79
2019-03-19T12:16:16.916Z,27.16
2019-03-19T12:18:48.318Z,25.88
2019-03-19T12:21:17.852Z,25.93
2019-03-19T12:23:47.419Z,26.29
2019-03-19T12:26:16.971Z,26.27
2019-03-19T12:28:46.564Z,26.74
2019-03-19T12:31:16.046Z,26.59
2019-03-19T12:33:45.584Z,27.40
2019-03-19T12:36:15.194Z,27.18
2019-03-19T12:38:44.726Z,26.98
2019-03-19T12:41:14.296Z,25.76
2019-03-19T12:43:43.840Z,25.26
2019-03-19T12:46:13.504Z,23.98
2019-03-19T12:48:43.024Z,23.37
2019-03-19T12:51:12.555Z,22.46
2019-03-19T12:53:42.093Z,22.32
2019-03-19T12:56:11.643Z,22.08
2019-03-19T12:58:41.228Z,22.27
2019-03-19T13:01:10.990Z,22.02
2019-03-19T13:03:40.492Z,21.77
2019-03-19T13:06:10.132Z,21.31
2019-03-19T13:08:39.636Z,20.98
2019-03-19T13:11:09.149Z,20.86
2019-03-19T13:13:40.904Z,20.89
2019-03-19T13:16:10.014Z,21.00
2019-03-19T13:18:39.567Z,20.80
2019-03-19T13:21:09.087Z,20.65
2019-03-19T13:23:38.658Z,20.53
2019-03-19T13:26:08.211Z,20.43
2019-03-19T13:28:37.756Z,20.32
2019-03-19T13:31:07.347Z,20.26
2019-03-19T13:33:36.897Z,20.11
2019-03-19T13:36:06.434Z,20.16
2019-03-19T13:38:35.972Z,20.01
2019-03-19T13:41:05.501Z,20.01
2019-03-19T13:43:35.056Z,19.90
2019-03-19T13:46:04.614Z,19.83
2019-03-19T13:48:34.138Z,19.70
2019-03-19T13:51:03.656Z,19.76
2019-03-19T13:53:33.294Z,19.69
2019-03-19T13:56:02.845Z,19.67
2019-03-19T13:58:32.396Z,19.59
2019-03-19T14:01:01.912Z,19.57
2019-03-19T14:03:42.246Z,19.56
2019-03-19T14:06:22.309Z,19.45
2019-03-19T14:08:51.840Z,19.44
2019-03-19T14:11:21.362Z,19.53
2019-03-19T14:13:51.373Z,19.58
2019-03-19T14:16:49.314Z,19.54
2019-03-19T14:20:16.944Z,19.55
2019-03-19T14:23:28.132Z,19.56
2019-03-19T14:26:36.428Z,19.49
2019-03-19T14:29:09.747Z,19.36
2019-03-19T14:32:20.621Z,19.21
2019-03-19T14:35:39.782Z,19.14
2019-03-19T14:38:17.724Z,19.07
2019-03-19T14:41:17.601Z,18.95
2019-03-19T14:43:49.461Z,18.82
2019-03-19T14:46:19.005Z,18.79
2019-03-19T14:48:48.535Z,18.79
2019-03-19T14:51:18.068Z,18.68
2019-03-19T14:53:47.611Z,18.64
2019-03-19T14:56:17.182Z,18.57
2019-03-19T14:58:46.703Z,18.64
2019-03-19T15:01:19.624Z,18.61
2019-03-19T15:03:47.520Z,18.54
2019-03-19T15:06:17.066Z,18.54
2019-03-19T15:08:46.584Z,18.47
2019-03-19T15:11:16.181Z,18.41
2019-03-19T15:13:45.728Z,18.42
2019-03-19T15:17:04.741Z,18.36
2019-03-19T15:20:07.075Z,18.30
2019-03-19T15:22:58.273Z,18.22
2019-03-19T15:25:50.242Z,18.18
2019-03-19T15:28:19.806Z,18.10
2019-03-19T15:30:49.330Z,18.11
2019-03-19T15:33:36.216Z,18.04
2019-03-19T15:36:05.781Z,17.95
2019-03-19T15:38:35.331Z,17.85
2019-03-19T15:41:04.871Z,17.78
2019-03-19T15:44:01.368Z,17.75
2019-03-19T15:46:30.928Z,17.64
2019-03-19T15:49:00.661Z,17.54
2019-03-19T15:51:30.187Z,17.46
2019-03-19T15:53:59.756Z,17.35
2019-03-19T15:56:29.354Z,17.35
2019-03-19T15:58:58.972Z,17.29
2019-03-19T16:01:28.497Z,17.21
2019-03-19T16:03:58.143Z,17.02
2019-03-19T16:06:27.736Z,16.85
2019-03-19T16:08:57.331Z,16.70
2019-03-19T16:11:26.902Z,16.58
2019-03-19T16:13:56.440Z,16.40
2019-03-19T16:16:25.998Z,16.21
2019-03-19T16:18:55.526Z,16.11
2019-03-19T16:21:25.090Z,16.10
2019-03-19T16:23:54.637Z,16.04
2019-03-19T16:26:24.171Z,16.03
2019-03-19T16:29:06.588Z,16.05
2019-03-19T16:31:37.430Z,15.89
2019-03-19T16:34:12.735Z,15.75
2019-03-19T16:37:06.216Z,15.70
2019-03-19T16:39:44.035Z,15.56
2019-03-19T16:42:17.178Z,15.45
2019-03-19T16:44:57.229Z,15.28
2019-03-19T16:47:31.370Z,15.18
2019-03-19T16:50:05.893Z,15.09
2019-03-19T16:53:20.777Z,14.92
2019-03-19T16:55:52.354Z,14.84
2019-03-19T16:58:21.886Z,14.76
2019-03-19T17:00:51.438Z,14.64
2019-03-19T17:03:21.160Z,14.51
2019-03-19T17:05:50.877Z,14.50
2019-03-19T17:08:20.458Z,14.41
2019-03-19T17:10:49.990Z,14.40
2019-03-19T17:13:19.559Z,14.33
2019-03-19T17:15:49.118Z,14.29
2019-03-19T17:18:18.750Z,14.27
2019-03-19T17:20:48.291Z,14.24
2019-03-19T17:23:17.865Z,14.21
2019-03-19T17:25:47.467Z,14.23
2019-03-19T17:28:22.436Z,14.18
2019-03-19T17:30:48.242Z,14.11
2019-03-19T17:33:17.787Z,14.11
2019-03-19T17:35:47.371Z,14.06
2019-03-19T17:38:16.944Z,14.01
2019-03-19T17:40:46.496Z,13.95
2019-03-19T17:43:16.078Z,13.94
2019-03-19T17:45:45.614Z,13.89
2019-03-19T17:48:16.351Z,13.86
2019-03-19T17:50:46.702Z,13.82
2019-03-19T17:53:16.251Z,13.78
2019-03-19T17:55:55.991Z,13.71
2019-03-19T17:58:25.553Z,13.68
2019-03-19T18:00:55.206Z,13.66
2019-03-19T18:03:24.774Z,13.63
2019-03-19T18:05:54.295Z,13.60
2019-03-19T18:08:23.856Z,13.51
2019-03-19T18:10:53.399Z,13.45
2019-03-19T18:13:22.950Z,13.33
2019-03-19T18:15:52.493Z,13.26
2019-03-19T18:18:22.405Z,13.24
2019-03-19T18:20:52.006Z,13.14
2019-03-19T18:23:21.543Z,13.10
2019-03-19T18:25:51.100Z,13.09
2019-03-19T18:28:20.722Z,13.08
2019-03-19T18:30:50.275Z,13.11
2019-03-19T18:33:19.821Z,13.17
2019-03-19T18:35:49.366Z,13.21
2019-03-19T18:38:18.919Z,13.15
2019-03-19T18:40:48.527Z,13.14
2019-03-19T18:43:18.089Z,13.13
2019-03-19T18:45:47.649Z,13.12
2019-03-19T18:48:17.227Z,13.14
2019-03-19T18:50:46.742Z,13.17
2019-03-19T18:53:16.290Z,13.20
2019-03-19T18:55:46.792Z,13.23
2019-03-19T18:58:16.447Z,13.26
2019-03-19T19:00:45.998Z,13.27
2019-03-19T19:03:15.515Z,13.30
2019-03-19T19:05:45.149Z,13.31
2019-03-19T19:08:14.728Z,13.35
2019-03-19T19:10:44.275Z,13.43
2019-03-19T19:13:13.806Z,13.47
2019-03-19T19:15:43.361Z,13.52
2019-03-19T19:18:35.569Z,13.49
2019-03-19T19:21:52.377Z,13.48
2019-03-19T19:24:57.632Z,13.50
2019-03-19T19:27:44.002Z,13.48
2019-03-19T19:30:15.864Z,13.49
2019-03-19T19:32:45.406Z,13.49
2019-03-19T19:35:15.047Z,13.52
2019-03-19T19:37:44.624Z,13.54
2019-03-19T19:40:14.913Z,13.54
2019-03-19T19:42:44.464Z,13.56
2019-03-19T19:45:16.212Z,13.60
2019-03-19T19:47:48.208Z,13.62
2019-03-19T19:50:19.930Z,13.65
2019-03-19T19:52:49.661Z,13.70
2019-03-19T19:55:20.121Z,13.77
2019-03-19T19:57:53.268Z,13.81
2019-03-19T20:00:22.806Z,13.82
2019-03-19T20:02:52.425Z,13.84
2019-03-19T20:05:21.989Z,13.86
2019-03-19T20:07:51.526Z,13.84
2019-03-19T20:10:21.110Z,13.85
2019-03-19T20:12:50.734Z,13.81
2019-03-19T20:15:20.299Z,13.80
2019-03-19T20:17:49.847Z,13.77
2019-03-19T20:20:19.526Z,13.72
2019-03-19T20:22:49.088Z,13.65
2019-03-19T20:25:19.015Z,13.57
2019-03-19T20:27:48.455Z,13.49
2019-03-19T20:30:19.048Z,13.48
2019-03-19T20:32:48.606Z,13.41
2019-03-19T20:35:18.175Z,13.36
2019-03-19T20:37:47.725Z,13.28
2019-03-19T20:40:17.265Z,13.24
2019-03-19T20:42:46.816Z,13.19
2019-03-19T20:45:16.547Z,13.17
2019-03-19T20:47:46.087Z,13.11
2019-03-19T20:50:21.016Z,13.11
2019-03-19T20:52:50.578Z,13.13
2019-03-19T20:55:20.125Z,13.12
2019-03-19T20:57:49.677Z,13.12
2019-03-19T21:00:19.257Z,13.09
2019-03-19T21:02:48.876Z,12.96
2019-03-19T21:05:18.418Z,12.90
2019-03-19T21:07:47.973Z,12.85
2019-03-19T21:12:49.857Z,12.95
2019-03-19T21:15:21.306Z,12.95
2019-03-19T21:17:50.878Z,12.95
2019-03-19T21:20:20.565Z,12.98
2019-03-19T21:22:50.149Z,13.03
2019-03-19T21:25:19.695Z,13.10
2019-03-19T21:27:49.328Z,13.11
2019-03-19T21:30:18.872Z,13.13
2019-03-19T21:32:48.412Z,13.20
2019-03-19T21:35:20.834Z,13.23
2019-03-19T21:37:50.537Z,13.25
2019-03-19T21:40:20.131Z,13.30
2019-03-19T21:42:49.663Z,13.33
2019-03-19T21:45:19.215Z,13.30
2019-03-19T21:47:48.784Z,13.29
2019-03-19T21:50:18.330Z,13.28
2019-03-19T21:52:47.926Z,13.22
2019-03-19T21:55:17.450Z,13.21
2019-03-19T21:57:47.109Z,13.17
2019-03-19T22:00:17.394Z,13.16
2019-03-19T22:02:46.967Z,13.09
2019-03-19T22:05:16.482Z,13.07
2019-03-19T22:07:46.038Z,13.03
2019-03-19T22:10:15.723Z,13.02
2019-03-19T22:12:45.288Z,13.03
2019-03-19T22:15:16.395Z,13.02
2019-03-19T22:17:45.942Z,12.98
2019-03-19T22:20:15.491Z,13.04
2019-03-19T22:22:45.030Z,13.05
2019-03-19T22:25:14.643Z,13.10
2019-03-19T22:27:44.210Z,13.12
2019-03-19T22:30:15.244Z,13.18
2019-03-19T22:32:44.911Z,13.23
2019-03-19T22:35:14.473Z,13.26
2019-03-19T22:37:44.032Z,13.28
2019-03-19T22:40:14.466Z,13.31
2019-03-19T22:42:44.024Z,13.30
2019-03-19T22:45:14.545Z,13.33
2019-03-19T22:47:44.080Z,13.39
2019-03-19T22:50:14.182Z,13.46
2019-03-19T22:52:43.749Z,13.50
2019-03-19T22:55:13.369Z,13.55
2019-03-19T22:57:42.886Z,13.57
2019-03-19T23:00:37.319Z,13.51
2019-03-19T23:03:06.846Z,13.38
2019-03-19T23:05:36.391Z,13.21
2019-03-19T23:08:05.940Z,13.15
2019-03-19T23:10:35.584Z,13.11
2019-03-19T23:13:05.161Z,13.11
2019-03-19T23:15:34.704Z,13.07
2019-03-19T23:18:04.318Z,13.03
2019-03-19T23:20:33.875Z,12.98
2019-03-19T23:23:03.428Z,12.97
2019-03-19T23:25:32.971Z,12.89
2019-03-19T23:28:02.510Z,12.82
2019-03-19T23:30:32.049Z,12.77
2019-03-19T23:33:01.615Z,12.79
2019-03-19T23:35:31.163Z,12.84
2019-03-19T23:38:00.731Z,12.88
2019-03-19T23:40:30.276Z,12.94
2019-03-19T23:42:59.806Z,13.03
2019-03-19T23:45:29.336Z,13.06
2019-03-19T23:47:58.900Z,13.12
2019-03-19T23:50:28.441Z,13.16
2019-03-19T23:52:57.988Z,13.24
2019-03-19T23:55:27.511Z,13.26
2019-03-19T23:57:57.067Z,13.32
